Time;durP1;ratioP1;P1;durP2;ratioP2;P2;SDS_P1;SDS_P2;PMS_P1;PMS_P2;Temp;Humidity;BMP_temperature;BMP_pressure;BME280_temperature;BME280_humidity;BME280_pressure;Samples;Min_cycle;Max_cycle;Signal;HPM_P1;HPM_P2
2023/10/22 00:00:48;;;;;;;2.05;0.50;;;;;;;;;;5053531;28;20100;-52
2023/10/22 00:03:14;;;;;;;1.38;0.60;;;33.80;1.00;;;;;;5053246;28;20435;-53
2023/10/22 00:05:40;;;;;;;1.48;0.40;;;32.80;99.90;;;;;;5053740;28;20029;-52
2023/10/22 00:08:06;;;;;;;2.00;0.50;;;32.70;99.90;;;;;;5053514;28;20025;-51
2023/10/22 00:10:32;;;;;;;0.75;0.50;;;32.80;99.90;;;;;;5053364;28;20028;-50
2023/10/22 00:12:57;;;;;;;0.80;0.80;;;32.80;99.90;;;;;;5053459;28;20029;-50
2023/10/22 00:15:26;;;;;;;1.98;0.57;;;32.70;99.90;;;;;;5053096;28;20055;-52
2023/10/22 00:17:53;;;;;;;2.72;0.75;;;32.70;99.90;;;;;;5053323;28;20029;-53
2023/10/22 00:20:19;;;;;;;2.30;0.70;;;32.70;99.90;;;;;;5051793;28;20053;-49
2023/10/22 00:22:45;;;;;;;2.58;0.63;;;32.70;99.90;;;;;;5053140;28;20114;-51
2023/10/22 00:25:11;;;;;;;1.75;0.80;;;32.80;99.90;;;;;;5053212;28;20041;-52
2023/10/22 00:27:36;;;;;;;2.30;0.68;;;32.80;99.90;;;;;;5053170;28;20389;-49
2023/10/22 00:30:02;;;;;;;3.53;0.80;;;32.80;99.90;;;;;;5053103;28;20453;-50
2023/10/22 00:32:28;;;;;;;1.75;0.63;;;32.80;99.90;;;;;;5053245;28;20052;-50
2023/10/22 00:34:54;;;;;;;0.80;0.80;;;32.70;99.90;;;;;;5052974;28;20524;-51
2023/10/22 00:37:20;;;;;;;0.60;0.60;;;32.70;99.90;;;;;;5052667;28;20029;-50
2023/10/22 00:39:46;;;;;;;2.55;1.10;;;32.70;99.90;;;;;;5052534;28;20025;-53
2023/10/22 00:42:11;;;;;;;2.40;0.95;;;32.70;99.90;;;;;;5052753;28;20024;-54
2023/10/22 00:44:37;;;;;;;2.03;1.02;;;32.80;99.90;;;;;;5052991;28;20382;-49
2023/10/22 00:47:04;;;;;;;1.20;0.80;;;32.80;99.90;;;;;;5052762;28;20120;-49
2023/10/22 00:49:30;;;;;;;2.28;0.80;;;32.80;99.90;;;;;;5052932;28;20048;-51
2023/10/22 00:51:56;;;;;;;1.50;0.70;;;32.80;99.90;;;;;;5052771;28;20446;-50
2023/10/22 00:54:24;;;;;;;1.38;0.70;;;32.80;99.90;;;;;;5052324;28;20025;-51
2023/10/22 00:56:51;;;;;;;2.65;1.02;;;32.70;99.90;;;;;;5052641;28;20037;-49
2023/10/22 00:59:17;;;;;;;1.40;0.73;;;32.60;99.90;;;;;;5052459;28;20493;-51
2023/10/22 01:01:44;;;;;;;0.60;0.60;;;32.70;99.90;;;;;;5052361;28;20043;-50
2023/10/22 01:04:11;;;;;;;1.50;0.70;;;32.70;99.90;;;;;;5051962;28;20108;-49
2023/10/22 01:06:38;;;;;;;1.50;0.85;;;32.70;99.90;;;;;;5051598;28;20028;-51
2023/10/22 01:09:05;;;;;;;1.67;1.00;;;32.70;99.90;;;;;;5051690;28;20029;-49
2023/10/22 01:11:32;;;;;;;3.15;1.40;;;32.70;99.90;;;;;;5051679;28;20029;-50
2023/10/22 01:13:57;;;;;;;2.25;0.68;;;32.70;1.00;;;;;;5042789;28;20029;-50
2023/10/22 01:16:23;;;;;;;4.20;0.88;;;32.70;1.00;;;;;;5033184;28;20099;-49
2023/10/22 01:18:49;;;;;;;2.58;0.52;;;32.70;1.00;;;;;;5051765;28;20388;-54
2023/10/22 01:21:31;;;;;;;1.70;0.65;;;32.70;99.90;;;;;;5071203;28;20040;-49
2023/10/22 01:23:56;;;;;;;2.85;0.93;;;32.70;99.90;;;;;;5070965;28;20031;-51
2023/10/22 01:26:44;;;;;;;3.80;0.88;;;32.60;99.90;;;;;;5071291;28;20024;-50
2023/10/22 01:29:10;;;;;;;4.78;1.63;;;32.60;99.90;;;;;;5069375;28;20027;-53
2023/10/22 01:31:36;;;;;;;2.08;0.90;;;32.60;99.90;;;;;;5059325;28;20032;-52
2023/10/22 01:34:03;;;;;;;2.25;0.82;;;32.70;1.00;;;;;;5064265;28;20470;-49
2023/10/22 01:36:29;;;;;;;2.15;1.15;;;32.60;1.00;;;;;;5070980;28;20379;-49
2023/10/22 01:38:55;;;;;;;3.65;0.95;;;32.70;1.00;;;;;;5072070;28;20016;-52
2023/10/22 01:41:26;;;;;;;3.00;1.00;;;32.60;1.00;;;;;;5072065;28;20020;-50
2023/10/22 01:44:20;;;;;;;2.92;1.05;;;32.50;1.00;;;;;;5071693;28;20031;-53
2023/10/22 01:46:45;;;;;;;4.07;1.25;;;32.40;1.00;;;;;;5071153;28;20052;-49
2023/10/22 01:49:11;;;;;;;5.35;1.80;;;32.30;1.00;;;;;;5071685;28;20056;-51
2023/10/22 01:51:37;;;;;;;5.85;1.00;;;32.20;1.00;;;;;;5071191;28;20016;-49
2023/10/22 01:54:05;;;;;;;3.10;1.20;;;32.20;1.00;;;;;;5071693;28;20028;-49
2023/10/22 01:56:30;;;;;;;6.72;1.67;;;32.10;1.00;;;;;;5071815;28;20111;-49
2023/10/22 01:58:56;;;;;;;12.48;3.65;;;32.10;1.00;;;;;;5063119;28;20111;-52
2023/10/22 02:01:22;;;;;;;6.20;2.25;;;32.10;1.00;;;;;;5071768;28;20032;-50
2023/10/22 02:03:48;;;;;;;6.47;2.05;;;32.10;1.00;;;;;;5071701;28;20025;-49
2023/10/22 02:06:14;;;;;;;4.95;1.55;;;32.00;1.00;;;;;;5071930;28;20103;-49
2023/10/22 02:08:46;;;;;;;8.52;2.38;;;32.00;1.00;;;;;;5070562;28;20025;-54
2023/10/22 02:11:12;;;;;;;7.85;1.33;;;32.00;1.00;;;;;;5068784;28;20118;-54
2023/10/22 02:13:38;;;;;;;6.03;1.90;;;32.00;1.00;;;;;;5062120;28;20108;-50
2023/10/22 02:16:04;;;;;;;4.40;1.92;;;31.90;1.00;;;;;;5061462;28;20173;-50
2023/10/22 02:18:29;;;;;;;5.93;2.28;;;31.90;1.00;;;;;;5067316;28;20479;-55
2023/10/22 02:20:58;;;;;;;3.65;2.65;;;31.90;1.00;;;;;;5051672;28;20048;-50
2023/10/22 02:23:24;;;;;;;10.48;2.58;;;31.90;1.00;;;;;;5070449;28;20028;-51
2023/10/22 02:25:50;;;;;;;7.78;3.10;;;31.90;1.00;;;;;;5071503;28;20021;-51
2023/10/22 02:28:19;;;;;;;5.70;2.67;;;31.90;1.00;;;;;;5071711;28;20035;-51
2023/10/22 02:30:48;;;;;;;5.32;2.15;;;31.90;1.00;;;;;;5053315;28;20052;-48
2023/10/22 02:33:14;;;;;;;4.25;2.08;;;31.90;1.00;;;;;;5071484;28;20035;-52
2023/10/22 02:35:41;;;;;;;4.22;2.17;;;31.90;1.00;;;;;;5071268;28;20524;-52
2023/10/22 02:38:08;;;;;;;4.13;2.25;;;31.90;1.00;;;;;;5071396;28;20059;-53
2023/10/22 02:40:36;;;;;;;5.90;2.17;;;32.00;1.00;;;;;;5071263;28;20102;-50
2023/10/22 02:43:03;;;;;;;4.53;2.60;;;32.00;1.00;;;;;;5071287;28;20024;-49
2023/10/22 02:55:40;;;;;;;5.50;2.53;;;32.10;1.00;;;;;;5064630;28;20134;-48
2023/10/22 02:58:06;;;;;;;5.82;2.25;;;32.10;1.00;;;;;;5070392;28;20024;-49
2023/10/22 03:00:36;;;;;;;5.88;2.60;;;32.10;1.00;;;;;;5071171;28;20028;-48
2023/10/22 03:03:04;;;;;;;2.70;1.75;;;32.10;1.00;;;;;;5067020;28;20024;-51
2023/10/22 03:05:34;;;;;;;4.28;2.33;;;32.10;1.00;;;;;;5074728;28;20017;-49
2023/10/22 03:08:01;;;;;;;3.50;1.63;;;32.10;1.00;;;;;;5060787;28;20052;-50
2023/10/22 03:10:27;;;;;;;2.75;1.70;;;32.10;1.00;;;;;;5074879;28;20029;-49
2023/10/22 03:12:53;;;;;;;5.97;1.70;;;32.10;1.00;;;;;;5074511;28;20458;-50
2023/10/22 03:15:19;;;;;;;3.83;1.90;;;32.10;1.00;;;;;;5074784;28;20051;-52
2023/10/22 03:18:04;;;;;;;4.43;1.80;;;32.00;1.00;;;;;;5074483;28;20067;-49
2023/10/22 03:20:35;;;;;;;2.30;1.75;;;32.00;1.00;;;;;;5061371;28;20455;-49
2023/10/22 03:23:03;;;;;;;4.05;2.22;;;32.00;1.00;;;;;;5056328;28;20033;-49
2023/10/22 03:25:29;;;;;;;4.13;2.05;;;32.00;1.00;;;;;;5074326;28;20099;-53
2023/10/22 03:27:55;;;;;;;2.42;2.22;;;32.00;1.00;;;;;;5074330;28;20020;-49
2023/10/22 03:30:22;;;;;;;5.72;2.17;;;32.00;1.00;;;;;;5073236;28;20051;-48
2023/10/22 03:32:47;;;;;;;3.78;1.50;;;32.00;1.00;;;;;;5064850;28;20056;-50
2023/10/22 03:35:13;;;;;;;4.03;1.48;;;31.90;1.00;;;;;;5051385;28;20044;-49
2023/10/22 03:37:39;;;;;;;3.42;1.63;;;31.90;1.00;;;;;;5074390;28;20512;-51
2023/10/22 03:40:05;;;;;;;2.03;1.55;;;31.90;1.00;;;;;;5074272;28;20332;-53
2023/10/22 03:42:31;;;;;;;2.35;1.80;;;31.90;1.00;;;;;;5064714;28;20064;-49
2023/10/22 03:44:57;;;;;;;2.05;1.65;;;31.90;1.00;;;;;;5074016;28;20101;-49
2023/10/22 03:47:22;;;;;;;1.92;1.80;;;31.90;1.00;;;;;;5072863;28;20036;-49
2023/10/22 03:49:48;;;;;;;1.67;1.55;;;31.90;1.00;;;;;;5060664;28;20028;-48
2023/10/22 03:52:13;;;;;;;1.70;1.20;;;31.90;1.00;;;;;;5065353;28;20044;-52
2023/10/22 03:54:48;;;;;;;2.80;1.70;;;31.90;1.00;;;;;;5073615;28;20032;-52
2023/10/22 03:57:14;;;;;;;2.03;1.52;;;31.80;1.00;;;;;;5073741;28;20036;-52
2023/10/22 03:59:40;;;;;;;2.40;1.70;;;31.90;1.00;;;;;;5073930;28;20480;-50
2023/10/22 04:02:05;;;;;;;1.92;1.52;;;31.80;1.00;;;;;;5073888;28;20032;-52
2023/10/22 04:04:31;;;;;;;2.78;1.63;;;31.90;1.00;;;;;;5073391;28;20367;-51
2023/10/22 04:06:57;;;;;;;2.55;1.70;;;31.90;1.00;;;;;;5073528;28;20134;-51
2023/10/22 04:09:23;;;;;;;2.90;1.83;;;31.90;1.00;;;;;;5073843;28;20063;-48
2023/10/22 04:11:55;;;;;;;1.88;1.60;;;31.90;1.00;;;;;;5073454;28;20020;-50
2023/10/22 04:14:21;;;;;;;3.45;1.75;;;31.90;1.00;;;;;;5071694;28;20389;-49
2023/10/22 04:16:52;;;;;;;2.60;1.70;;;31.90;1.00;;;;;;5073237;28;20042;-49
2023/10/22 04:19:17;;;;;;;2.70;2.17;;;31.90;1.00;;;;;;5073084;28;20047;-49
2023/10/22 04:21:43;;;;;;;4.63;2.70;;;32.00;1.00;;;;;;5073223;28;20024;-54
2023/10/22 04:24:08;;;;;;;3.75;2.45;;;31.90;1.00;;;;;;5061500;28;20071;-49
2023/10/22 04:26:34;;;;;;;2.45;2.25;;;32.00;1.00;;;;;;5072984;28;20052;-48
2023/10/22 04:29:18;;;;;;;4.68;2.70;;;32.00;1.00;;;;;;5073069;28;20047;-52
2023/10/22 04:31:43;;;;;;;4.10;2.28;;;32.00;1.00;;;;;;5073081;28;20016;-48
2023/10/22 04:34:09;;;;;;;3.58;2.53;;;32.00;1.00;;;;;;5073090;28;20023;-50
2023/10/22 04:36:34;;;;;;;3.03;2.03;;;32.00;1.00;;;;;;5072822;28;20036;-53
2023/10/22 04:39:00;;;;;;;3.10;2.80;;;32.00;1.00;;;;;;5073148;28;20012;-48
2023/10/22 04:41:26;;;;;;;3.33;2.40;;;32.00;1.00;;;;;;5072845;28;20349;-50
2023/10/22 04:43:51;;;;;;;5.38;2.60;;;32.00;1.00;;;;;;5072580;28;20075;-49
2023/10/22 04:46:17;;;;;;;7.38;2.60;;;32.00;1.00;;;;;;5072737;28;20021;-49
2023/10/22 04:48:44;;;;;;;5.47;3.10;;;32.00;1.00;;;;;;5072553;28;20378;-49
2023/10/22 04:51:09;;;;;;;3.70;2.63;;;32.00;1.00;;;;;;5052581;28;20031;-52
2023/10/22 04:53:35;;;;;;;3.53;2.80;;;32.00;1.00;;;;;;5051033;28;20474;-52
2023/10/22 04:56:01;;;;;;;5.10;2.90;;;32.00;1.00;;;;;;5054390;28;20131;-52
2023/10/22 04:58:28;;;;;;;4.43;2.92;;;32.00;1.00;;;;;;5065446;28;20021;-52
2023/10/22 05:00:55;;;;;;;2.88;2.65;;;32.00;1.00;;;;;;5072342;28;20020;-54
2023/10/22 05:03:21;;;;;;;3.67;2.83;;;32.00;1.00;;;;;;5072302;28;20013;-51
2023/10/22 05:05:46;;;;;;;5.80;3.40;;;32.00;1.00;;;;;;5072662;28;20074;-53
2023/10/22 05:08:12;;;;;;;3.47;3.08;;;32.00;1.00;;;;;;5072374;28;20032;-51
2023/10/22 05:10:38;;;;;;;3.38;2.65;;;32.00;1.00;;;;;;5072160;28;20105;-54
2023/10/22 05:13:04;;;;;;;5.82;3.08;;;31.90;1.00;;;;;;5072259;28;20107;-54
2023/10/22 05:15:30;;;;;;;4.45;3.20;;;32.00;1.00;;;;;;5072022;28;20023;-50
2023/10/22 05:17:57;;;;;;;5.53;3.20;;;32.00;1.00;;;;;;5072293;28;20024;-53
2023/10/22 05:20:28;;;;;;;4.18;3.65;;;32.00;1.00;;;;;;5071752;28;20053;-49
2023/10/22 05:22:53;;;;;;;4.75;3.58;;;31.90;1.00;;;;;;5072314;28;20013;-50
2023/10/22 05:25:21;;;;;;;6.22;3.22;;;31.90;1.00;;;;;;5071989;28;20382;-49
2023/10/22 05:27:47;;;;;;;5.03;3.65;;;31.90;1.00;;;;;;5071581;28;20541;-52
2023/10/22 05:30:13;;;;;;;5.78;3.30;;;31.90;1.00;;;;;;5072063;28;20063;-52
2023/10/22 05:32:39;;;;;;;5.07;3.80;;;31.90;1.00;;;;;;5070498;28;20502;-50
2023/10/22 05:35:06;;;;;;;4.15;3.53;;;31.80;1.00;;;;;;5072058;28;20029;-51
2023/10/22 05:37:32;;;;;;;7.03;4.10;;;31.80;1.00;;;;;;5071981;28;20041;-53
2023/10/22 05:39:58;;;;;;;7.22;4.22;;;31.90;1.00;;;;;;5072290;28;20081;-48
2023/10/22 05:42:24;;;;;;;6.13;3.85;;;31.80;1.00;;;;;;5071734;28;20024;-51
2023/10/22 05:44:49;;;;;;;4.43;3.53;;;31.80;1.00;;;;;;5054271;28;20487;-51
2023/10/22 05:47:15;;;;;;;6.15;3.80;;;31.80;1.00;;;;;;5071828;28;20032;-52
2023/10/22 05:49:41;;;;;;;4.72;3.35;;;31.80;1.00;;;;;;5072067;28;20020;-50
2023/10/22 05:52:06;;;;;;;5.95;3.50;;;31.80;1.00;;;;;;5072116;28;20488;-49
2023/10/22 05:54:32;;;;;;;5.35;3.90;;;31.80;1.00;;;;;;5066889;28;20036;-48
2023/10/22 05:56:58;;;;;;;4.05;3.67;;;31.80;1.00;;;;;;5071777;28;20408;-49
2023/10/22 05:59:24;;;;;;;5.15;3.50;;;31.80;1.00;;;;;;5071731;28;20032;-52
2023/10/22 06:01:50;;;;;;;4.68;4.20;;;31.80;1.00;;;;;;5050605;28;20379;-48
2023/10/22 06:04:15;;;;;;;7.20;4.63;;;31.80;1.00;;;;;;5063292;28;20017;-51
2023/10/22 06:06:41;;;;;;;5.45;4.60;;;31.80;1.00;;;;;;5071836;28;20021;-52
2023/10/22 06:09:06;;;;;;;7.78;4.50;;;31.80;1.00;;;;;;5064828;28;20057;-48
2023/10/22 06:11:35;;;;;;;5.00;4.50;;;31.90;1.00;;;;;;5038295;28;20086;-50
2023/10/22 06:14:02;;;;;;;8.15;4.07;;;31.90;1.00;;;;;;5057254;28;20082;-51
2023/10/22 06:16:28;;;;;;;4.22;3.83;;;31.90;1.00;;;;;;5060090;28;20547;-48
2023/10/22 06:18:53;;;;;;;4.43;4.03;;;31.90;1.00;;;;;;5069503;28;20020;-52
2023/10/22 06:21:19;;;;;;;9.60;5.10;;;31.90;1.00;;;;;;5071935;28;20116;-49
2023/10/22 06:23:45;;;;;;;4.63;4.22;;;32.00;1.00;;;;;;5071289;28;20075;-48
2023/10/22 06:26:11;;;;;;;6.22;4.80;;;31.90;1.00;;;;;;5071674;28;20142;-48
2023/10/22 06:28:38;;;;;;;7.95;5.50;;;32.00;1.00;;;;;;5071403;28;20027;-49
2023/10/22 06:31:08;;;;;;;7.13;4.80;;;31.90;1.00;;;;;;5071312;28;20359;-49
2023/10/22 06:33:35;;;;;;;4.68;4.10;;;31.90;1.00;;;;;;5060774;28;20024;-48
2023/10/22 06:36:11;;;;;;;5.90;4.82;;;31.90;1.00;;;;;;5071260;28;20044;-49
2023/10/22 06:38:37;;;;;;;6.38;4.38;;;31.80;1.00;;;;;;5073994;28;20438;-50
2023/10/22 06:41:04;;;;;;;5.00;4.60;;;31.90;1.00;;;;;;5075078;28;20115;-52
2023/10/22 06:43:30;;;;;;;5.45;4.95;;;31.90;1.00;;;;;;5068419;28;20106;-54
2023/10/22 06:45:59;;;;;;;7.07;5.38;;;32.00;1.00;;;;;;5069288;28;20056;-50
2023/10/22 06:48:24;;;;;;;5.93;5.28;;;32.00;1.00;;;;;;5072482;28;20016;-50
2023/10/22 06:50:50;;;;;;;6.60;5.40;;;32.00;1.00;;;;;;5052811;28;20038;-49
2023/10/22 06:53:16;;;;;;;5.57;4.72;;;32.00;1.00;;;;;;5052700;28;20466;-51
2023/10/22 06:55:42;;;;;;;5.65;4.97;;;32.00;1.00;;;;;;5056230;28;20098;-50
2023/10/22 06:58:07;;;;;;;5.75;5.07;;;32.00;1.00;;;;;;5073784;28;20078;-50
2023/10/22 07:00:33;;;;;;;5.65;5.15;;;32.00;1.00;;;;;;5073055;28;20028;-51
2023/10/22 07:02:58;;;;;;;5.47;4.97;;;32.00;1.00;;;;;;5074718;28;20032;-53
2023/10/22 07:05:24;;;;;;;5.60;4.95;;;32.00;1.00;;;;;;5048100;28;20119;-50
2023/10/22 07:07:50;;;;;;;7.95;6.05;;;32.00;1.00;;;;;;5073622;28;20335;-49
2023/10/22 07:10:16;;;;;;;5.63;5.00;;;31.90;1.00;;;;;;5073098;28;20367;-50
2023/10/22 07:12:41;;;;;;;7.47;6.50;;;32.00;1.00;;;;;;5074177;28;20025;-49
2023/10/22 07:15:09;;;;;;;6.50;5.90;;;32.00;1.00;;;;;;5074404;28;20120;-53
2023/10/22 07:17:34;;;;;;;7.53;5.97;;;32.00;1.00;;;;;;5074448;28;20037;-50
2023/10/22 07:20:00;;;;;;;6.88;6.18;;;31.80;1.00;;;;;;5053437;28;20517;-49
2023/10/22 07:22:26;;;;;;;7.35;5.40;;;31.80;1.00;;;;;;5067898;28;20024;-50
2023/10/22 07:24:51;;;;;;;7.03;5.63;;;31.90;1.00;;;;;;5058973;28;20029;-49
2023/10/22 07:27:17;;;;;;;7.80;6.35;;;31.90;1.00;;;;;;5063841;28;20032;-50
2023/10/22 07:29:42;;;;;;;6.78;6.05;;;31.90;1.00;;;;;;5074240;28;20033;-50
2023/10/22 07:32:10;;;;;;;6.88;5.70;;;31.90;1.00;;;;;;5074122;28;20021;-51
2023/10/22 07:35:09;;;;;;;7.22;5.97;;;31.90;1.00;;;;;;5074307;28;20035;-52
2023/10/22 07:37:37;;;;;;;7.03;5.90;;;31.90;1.00;;;;;;5074136;28;20167;-48
2023/10/22 07:40:03;;;;;;;7.18;6.28;;;31.90;1.00;;;;;;5074053;28;20009;-49
2023/10/22 07:42:30;;;;;;;6.20;5.60;;;31.90;1.00;;;;;;5055730;28;20031;-49
2023/10/22 07:44:56;;;;;;;6.32;5.70;;;31.90;1.00;;;;;;5074030;28;20111;-49
2023/10/22 07:47:21;;;;;;;7.32;5.28;;;31.80;1.00;;;;;;5054672;28;20781;-48
2023/10/22 07:49:51;;;;;;;6.70;5.25;;;31.90;1.00;;;;;;5063217;28;20059;-48
2023/10/22 07:52:17;;;;;;;6.80;6.20;;;31.90;1.00;;;;;;5063913;28;20484;-50
2023/10/22 07:54:47;;;;;;;6.70;6.00;;;32.00;1.00;;;;;;5063310;28;20060;-51
2023/10/22 07:57:13;;;;;;;7.50;6.47;;;32.00;1.00;;;;;;5066936;28;20043;-50
2023/10/22 07:59:38;;;;;;;6.70;5.95;;;32.00;1.00;;;;;;5066730;28;20103;-52
2023/10/22 08:02:04;;;;;;;8.45;6.82;;;32.00;1.00;;;;;;5064685;28;20078;-50
2023/10/22 08:07:51;;;;;;;6.93;6.22;;;32.00;1.00;;;;;;5067889;28;20039;-50
2023/10/22 08:13:45;;;;;;;7.35;6.75;;;32.00;1.00;;;;;;5069493;28;20086;-53
2023/10/22 08:16:12;;;;;;;8.38;7.57;;;32.20;1.00;;;;;;5064538;28;20072;-53
2023/10/22 08:18:38;;;;;;;9.73;7.32;;;32.20;1.00;;;;;;5065195;28;20393;-49
2023/10/22 08:21:06;;;;;;;7.85;5.97;;;32.30;1.00;;;;;;5065916;28;20056;-49
2023/10/22 08:23:31;;;;;;;8.98;6.75;;;32.20;1.00;;;;;;5062331;28;20075;-49
2023/10/22 08:25:57;;;;;;;6.75;6.07;;;32.20;1.00;;;;;;5067460;28;20502;-50
2023/10/22 08:28:23;;;;;;;7.95;6.65;;;32.20;1.00;;;;;;5065677;28;20505;-49
2023/10/22 08:30:49;;;;;;;9.38;7.20;;;32.20;1.00;;;;;;5064429;28;20115;-49
2023/10/22 08:33:16;;;;;;;8.15;7.35;;;32.20;1.00;;;;;;5065760;28;20039;-51
2023/10/22 08:39:04;;;;;;;9.55;5.72;;;32.20;1.00;;;;;;5066360;28;20129;-50
2023/10/22 08:41:38;;;;;;;6.50;5.20;;;32.20;1.00;;;;;;5063796;28;20396;-49
2023/10/22 08:44:05;;;;;;;6.55;5.78;;;32.20;1.00;;;;;;5062692;28;20108;-49
2023/10/22 08:46:34;;;;;;;7.10;6.40;;;32.20;1.00;;;;;;5069807;28;20109;-49
2023/10/22 08:49:06;;;;;;;6.70;6.03;;;32.20;1.00;;;;;;5062844;28;20021;-49
2023/10/22 08:51:32;;;;;;;7.53;6.40;;;32.30;1.00;;;;;;5054575;28;20117;-49
2023/10/22 08:53:57;;;;;;;8.73;7.45;;;32.30;1.00;;;;;;5072705;28;20056;-49
2023/10/22 08:56:23;;;;;;;9.30;6.30;;;32.30;1.00;;;;;;5072620;28;20072;-49
2023/10/22 08:58:49;;;;;;;8.88;6.68;;;32.40;1.00;;;;;;5072793;28;20078;-50
2023/10/22 09:01:16;;;;;;;8.00;5.57;;;32.40;1.00;;;;;;5072350;28;20097;-49
2023/10/22 09:03:42;;;;;;;7.30;5.35;;;32.40;1.00;;;;;;5072627;28;20091;-50
2023/10/22 09:06:08;;;;;;;7.43;6.30;;;32.50;1.00;;;;;;5072504;28;20024;-49
2023/10/22 09:08:43;;;;;;;7.28;5.25;;;;;;;;;;5054325;28;20024;-49
2023/10/22 09:11:16;;;;;;;6.32;4.40;;;;;;;;;;5058914;28;20497;-51
2023/10/22 09:13:48;;;;;;;6.75;4.80;;;;;;;;;;5072405;28;20052;-50
2023/10/22 09:16:27;;;;;;;5.88;4.15;;;;;;;;;;5058274;28;20059;-49
2023/10/22 09:18:53;;;;;;;5.15;4.35;;;;;;;;;;5071766;28;20432;-48
2023/10/22 09:21:19;;;;;;;6.70;4.70;;;;;;;;;;5071983;28;20535;-50
2023/10/22 09:24:02;;;;;;;9.15;5.30;;;;;;;;;;5070692;28;20474;-50
2023/10/22 09:26:40;;;;;;;5.10;4.00;;;;;;;;;;5072116;28;20013;-52
2023/10/22 09:29:07;;;;;;;5.75;4.22;;;;;;;;;;5072347;28;20137;-49
2023/10/22 09:31:33;;;;;;;8.60;3.90;;;;;;;;;;5072056;28;20042;-51
2023/10/22 09:34:00;;;;;;;6.03;3.38;;;;;;;;;;5072215;28;20040;-50
2023/10/22 09:36:26;;;;;;;4.95;4.32;;;;;;;;;;5070591;28;20121;-51
2023/10/22 09:38:52;;;;;;;8.77;4.65;;;;;;;;;;5070810;28;20567;-51
2023/10/22 09:41:30;;;;;;;7.88;4.72;;;;;;;;;;5072136;28;20112;-50
2023/10/22 09:43:57;;;;;;;6.55;3.90;;;;;;;;;;5072121;28;20363;-49
2023/10/22 09:46:25;;;;;;;6.78;3.88;;;;;;;;;;5071926;28;20470;-49
2023/10/22 09:48:51;;;;;;;6.75;4.28;;;;;;;;;;5071839;28;20059;-49
2023/10/22 09:51:17;;;;;;;4.32;3.00;;;;;;;;;;5070385;28;20390;-49
2023/10/22 09:53:53;;;;;;;4.10;3.55;;;;;;;;;;5070237;28;20425;-49
2023/10/22 09:56:23;;;;;;;5.10;3.55;;;;;;;;;;5071692;28;20040;-52
2023/10/22 09:59:00;;;;;;;4.05;3.60;;;;;;;;;;5072016;28;20075;-51
2023/10/22 10:01:27;;;;;;;6.40;3.40;;;;;;;;;;5071477;28;20017;-49
2023/10/22 10:03:53;;;;;;;5.43;3.83;;;;;;;;;;5053495;28;20060;-52
2023/10/22 10:06:20;;;;;;;5.70;3.20;;;;;;;;;;5072048;28;20074;-49
2023/10/22 10:08:56;;;;;;;5.82;3.38;;;;;;;;;;5071563;28;20130;-48
2023/10/22 10:11:23;;;;;;;6.32;4.35;;;;;;;;;;5071797;28;20364;-49
2023/10/22 10:13:49;;;;;;;6.95;3.70;;;;;;;;;;5073253;28;20127;-49
2023/10/22 10:16:15;;;;;;;8.38;4.38;;;;;;;;;;5075658;28;20028;-49
2023/10/22 10:19:00;;;;;;;4.00;3.60;;;;;;;;;;5075565;28;20029;-48
2023/10/22 10:21:36;;;;;;;6.20;3.53;;;;;;;;;;5062577;28;20048;-48
2023/10/22 10:24:20;;;;;;;4.45;3.30;;;;;;;;;;5075323;28;20032;-49
2023/10/22 10:26:47;;;;;;;5.22;3.47;;;;;;;;;;5074124;28;20378;-48
2023/10/22 10:29:15;;;;;;;5.50;4.00;;;;;;;;;;5075385;28;20085;-52
2023/10/22 10:31:44;;;;;;;4.63;3.38;;;;;;;;;;5075225;28;20036;-49
2023/10/22 10:34:20;;;;;;;5.28;3.58;;;;;;;;;;5075220;28;20028;-49
2023/10/22 10:36:46;;;;;;;4.80;2.97;;;;;;;;;;5075076;28;20037;-49
2023/10/22 10:39:35;;;;;;;5.53;3.20;;;;;;;;;;5075080;28;20032;-49
2023/10/22 10:42:01;;;;;;;7.05;3.22;;;;;;;;;;5063847;28;20055;-53
2023/10/22 10:44:31;;;;;;;7.05;3.58;;;;;;;;;;5075200;28;20466;-48
2023/10/22 10:47:29;;;;;;;4.90;2.63;;;;;;;;;;5075189;28;20054;-48
2023/10/22 10:50:05;;;;;;;3.83;2.15;;;;;;;;;;5072972;28;20029;-49
2023/10/22 10:52:53;;;;;;;3.67;1.90;;;;;;;;;;5066116;28;20080;-49
2023/10/22 10:55:19;;;;;;;4.40;2.95;;;;;;;;;;5048884;28;20029;-52
2023/10/22 10:57:48;;;;;;;5.30;3.15;;;;;;;;;;5075105;28;20032;-50
2023/10/22 11:00:20;;;;;;;9.13;3.13;;;;;;;;;;5074536;28;20035;-53
2023/10/22 11:02:47;;;;;;;8.50;2.90;;;;;;;;;;5069271;28;20116;-53
2023/10/22 11:05:14;;;;;;;8.48;3.50;;;;;;;;;;5056692;28;20028;-49
2023/10/22 11:07:41;;;;;;;7.45;3.97;;;;;;;;;;5074882;28;20075;-52
2023/10/22 11:10:07;;;;;;;6.55;3.25;;;;;;;;;;5060694;28;20028;-49
2023/10/22 11:12:33;;;;;;;11.93;3.45;;;;;;;;;;5074726;28;20029;-50
2023/10/22 11:14:59;;;;;;;6.55;3.17;;;;;;;;;;5074716;28;20031;-49
2023/10/22 11:17:26;;;;;;;6.63;3.38;;;;;;;;;;5074475;28;20033;-49
2023/10/22 11:20:04;;;;;;;5.07;3.55;;;;;;;;;;5074487;28;20048;-52
2023/10/22 11:22:30;;;;;;;8.25;3.42;;;;;;;;;;5070991;28;20036;-53
2023/10/22 11:24:57;;;;;;;8.88;3.83;;;;;;;;;;5065046;28;20430;-53
2023/10/22 11:27:23;;;;;;;7.60;3.92;;;;;;;;;;5072546;28;20516;-52
2023/10/22 11:29:49;;;;;;;10.38;4.13;;;;;;;;;;5073399;28;20096;-52
2023/10/22 11:32:21;;;;;;;11.60;4.45;;;;;;;;;;5073823;28;20074;-53
2023/10/22 11:35:11;;;;;;;7.75;3.97;;;;;;;;;;5074005;28;20104;-50
2023/10/22 11:37:42;;;;;;;7.20;3.75;;;;;;;;;;5072991;28;20132;-50
2023/10/22 11:43:38;;;;;;;10.88;5.20;;;;;;;;;;5068263;28;20032;-51
2023/10/22 11:46:04;;;;;;;5.38;3.72;;;;;;;;;;5073541;28;20052;-51
2023/10/22 11:48:32;;;;;;;12.38;5.28;;;;;;;;;;5063813;28;20474;-51
2023/10/22 11:50:59;;;;;;;9.48;4.45;;;;;;;;;;5074015;28;20463;-52
2023/10/22 11:53:43;;;;;;;9.93;6.18;;;;;;;;;;5074122;28;20386;-50
2023/10/22 11:56:09;;;;;;;11.95;6.10;;;;;;;;;;5055884;28;20363;-49
2023/10/22 11:58:35;;;;;;;11.93;5.68;;;;;;;;;;5073723;28;20029;-53
2023/10/22 12:01:04;;;;;;;9.23;5.38;;;;;;;;;;5074033;28;20103;-52
2023/10/22 12:03:30;;;;;;;7.78;5.50;;;;;;;;;;5073786;28;20043;-49
2023/10/22 12:05:56;;;;;;;7.05;4.93;;;;;;;;;;5073660;28;20135;-51
2023/10/22 12:08:23;;;;;;;12.70;5.82;;;;;;;;;;5073992;28;20033;-54
2023/10/22 12:10:49;;;;;;;11.30;5.00;;;;;;;;;;5073551;28;20024;-53
2023/10/22 12:13:15;;;;;;;11.15;4.95;;;;;;;;;;5073883;28;20017;-52
2023/10/22 12:15:41;;;;;;;12.32;5.38;;;;;;;;;;5073909;28;20371;-50
2023/10/22 12:18:09;;;;;;;11.52;5.43;;;;;;;;;;5073590;28;20103;-54
2023/10/22 12:20:35;;;;;;;10.95;5.28;;;;;;;;;;5073382;28;20041;-52
2023/10/22 12:23:01;;;;;;;10.13;4.72;;;;;;;;;;5073391;28;20024;-49
2023/10/22 12:25:30;;;;;;;9.90;5.03;;;;;;;;;;5073670;28;20028;-53
2023/10/22 12:27:56;;;;;;;7.57;4.03;;;;;;;;;;5073303;28;20031;-52
2023/10/22 12:30:23;;;;;;;6.38;3.70;;;;;;;;;;5073514;28;20390;-53
2023/10/22 12:32:50;;;;;;;7.55;3.80;;;;;;;;;;5073080;28;20382;-52
2023/10/22 12:35:16;;;;;;;7.15;3.92;;;;;;;;;;5070395;28;20312;-53
2023/10/22 12:37:42;;;;;;;7.93;4.20;;;;;;;;;;5072670;28;20394;-51
2023/10/22 12:40:09;;;;;;;7.45;4.70;;;;;;;;;;5073062;28;20023;-49
2023/10/22 12:42:40;;;;;;;7.93;2.83;;;;;;;;;;5055464;28;20039;-53
2023/10/22 12:45:07;;;;;;;11.05;4.55;;;;;;;;;;5056231;28;20048;-49
2023/10/22 12:47:33;;;;;;;12.20;5.38;;;;;;;;;;5073180;28;20120;-50
2023/10/22 12:49:59;;;;;;;8.65;3.95;;;;;;;;;;5072847;28;20021;-51
2023/10/22 12:52:25;;;;;;;10.50;5.32;;;;;;;;;;5072879;28;20020;-53
2023/10/22 12:54:51;;;;;;;8.55;4.05;;;;;;;;;;5072644;28;20103;-49
2023/10/22 12:57:17;;;;;;;7.80;3.42;;;;;;;;;;5072623;28;20116;-50
2023/10/22 12:59:44;;;;;;;6.68;3.92;;;;;;;;;;5072591;28;20024;-52
2023/10/22 13:02:10;;;;;;;7.32;4.65;;;;;;;;;;5072528;28;20107;-52
2023/10/22 13:04:36;;;;;;;8.45;5.10;;;;;;;;;;5072621;28;20048;-48
2023/10/22 13:07:02;;;;;;;10.95;4.07;;;;;;;;;;5072499;28;20419;-49
2023/10/22 13:09:28;;;;;;;4.30;3.13;;;;;;;;;;5072503;28;20021;-49
2023/10/22 13:11:54;;;;;;;5.55;2.50;;;;;;;;;;5059011;28;20031;-49
2023/10/22 13:14:20;;;;;;;8.27;2.90;;;;;;;;;;5071775;28;20021;-49
2023/10/22 13:17:04;;;;;;;5.95;2.72;;;;;;;;;;5072301;28;20039;-49
2023/10/22 13:19:45;;;;;;;5.55;2.47;;;;;;;;;;5072166;28;20045;-50
2023/10/22 13:22:11;;;;;;;7.90;3.50;;;;;;;;;;5072529;28;20017;-52
2023/10/22 13:24:37;;;;;;;7.72;2.90;;;;;;;;;;5072257;28;20027;-49
2023/10/22 13:27:03;;;;;;;5.15;2.10;;;;;;;;;;5072323;28;20039;-52
2023/10/22 13:29:29;;;;;;;5.07;2.30;;;;;;;;;;5072146;28;20546;-49
2023/10/22 13:31:55;;;;;;;4.45;1.55;;;;;;;;;;5066762;28;20057;-51
2023/10/22 13:34:22;;;;;;;3.53;1.95;;;;;;;;;;5063337;28;20350;-49
2023/10/22 13:36:48;;;;;;;4.40;1.52;;;;;;;;;;5067621;28;20471;-49
2023/10/22 15:21:08;;;;;;;4.20;2.10;;;;;;;;;;5048987;28;20056;-52
2023/10/22 15:23:34;;;;;;;7.18;2.08;;;;;;;;;;5045161;28;20083;-53
2023/10/22 15:26:00;;;;;;;6.13;2.03;;;;;;;;;;5047177;28;20104;-53
2023/10/22 15:28:26;;;;;;;4.45;2.20;;;;;;;;;;5043947;28;20108;-52
2023/10/22 15:30:52;;;;;;;7.05;2.55;;;;;;;;;;5047279;28;20076;-52
2023/10/22 15:33:18;;;;;;;3.97;2.28;;;;;;;;;;5048065;28;20029;-53
2023/10/22 15:35:44;;;;;;;5.90;1.88;;;;;;;;;;5042644;28;20037;-53
2023/10/22 15:38:10;;;;;;;5.97;1.90;;;;;;;;;;5048061;28;20040;-50